Ancramdale, New York
Current Conditions -  °F | °C
As of 9:53 AM on Monday 22 Dec 2014 (Local Time) from KPOU Reporting Station
Haze Haze  
Wind Chill: 34°   Ceiling: 1400
Heat Index: 34°   Visibility: 4mi
Dew Point: 29°   Wind: 3mph
Humidity: 82%   Direction: 330°NNW
Pressure: 30.35"   Gusts: NA
Location:  42.02°N, 73.59°W
Report Text: KPOU 221453Z 33003KT 4SM HZ OVC014 01/M02 A3035 RMK AO2 SNE04 SLP277 P0000 60000 T00111017 53004
Loading
Personal Weather Stations






























Interactive Weather Map New forecast layout! Learn more

10-Day Weather Forecast

Advertisements
Track Severe Weather on mobile